sensor_id;sensor_type;location;lat;lon;timestamp;pressure;altitude;pressure_sealevel;temperature;humidity
39265;BME280;42646;51.910;7.724;2023-04-20T00:01:12;101491.06;;;8.01;47.15
39265;BME280;42646;51.910;7.724;2023-04-20T00:03:39;101489.16;;;8.03;46.87
39265;BME280;42646;51.910;7.724;2023-04-20T00:06:08;101488.22;;;8.04;47.11
39265;BME280;42646;51.910;7.724;2023-04-20T00:08:36;101482.28;;;8.00;47.16
39265;BME280;42646;51.910;7.724;2023-04-20T00:11:05;101480.38;;;8.02;47.26
39265;BME280;42646;51.910;7.724;2023-04-20T00:13:33;101476.97;;;8.00;47.27
39265;BME280;42646;51.910;7.724;2023-04-20T00:16:01;101479.72;;;7.99;47.54
39265;BME280;42646;51.910;7.724;2023-04-20T00:18:29;101470.38;;;7.93;48.12
39265;BME280;42646;51.910;7.724;2023-04-20T00:20:56;101466.56;;;7.97;48.19
39265;BME280;42646;51.910;7.724;2023-04-20T00:23:24;101456.16;;;7.94;48.82
39265;BME280;42646;51.910;7.724;2023-04-20T00:25:53;101452.47;;;7.97;49.07
39265;BME280;42646;51.910;7.724;2023-04-20T00:28:22;101446.03;;;8.01;49.48
39265;BME280;42646;51.910;7.724;2023-04-20T00:30:50;101441.88;;;7.97;49.75
39265;BME280;42646;51.910;7.724;2023-04-20T00:33:18;101442.63;;;7.99;50.33
39265;BME280;42646;51.910;7.724;2023-04-20T00:35:46;101437.53;;;7.96;50.68
39265;BME280;42646;51.910;7.724;2023-04-20T00:38:14;101429.66;;;7.94;50.68
39265;BME280;42646;51.910;7.724;2023-04-20T00:40:43;101430.53;;;7.95;51.03
39265;BME280;42646;51.910;7.724;2023-04-20T00:43:49;101429.28;;;8.00;51.75
39265;BME280;42646;51.910;7.724;2023-04-20T00:46:18;101430.31;;;7.98;51.93
39265;BME280;42646;51.910;7.724;2023-04-20T00:48:46;101424.84;;;8.01;51.92
39265;BME280;42646;51.910;7.724;2023-04-20T00:51:16;101424.91;;;7.99;52.62
39265;BME280;42646;51.910;7.724;2023-04-20T00:53:44;101416.78;;;8.02;52.42
39265;BME280;42646;51.910;7.724;2023-04-20T00:56:14;101412.50;;;8.00;53.21
39265;BME280;42646;51.910;7.724;2023-04-20T00:58:42;101418.16;;;8.08;53.01
39265;BME280;42646;51.910;7.724;2023-04-20T01:01:15;101418.06;;;8.10;53.50
39265;BME280;42646;51.910;7.724;2023-04-20T01:03:45;101417.94;;;8.11;53.32
39265;BME280;42646;51.910;7.724;2023-04-20T01:06:14;101409.25;;;8.09;54.06
39265;BME280;42646;51.910;7.724;2023-04-20T01:08:46;101405.66;;;8.10;54.20
39265;BME280;42646;51.910;7.724;2023-04-20T01:11:18;101393.13;;;8.12;54.27
39265;BME280;42646;51.910;7.724;2023-04-20T01:13:46;101393.91;;;8.14;54.39
39265;BME280;42646;51.910;7.724;2023-04-20T01:16:17;101391.88;;;8.18;54.79
39265;BME280;42646;51.910;7.724;2023-04-20T01:18:46;101385.41;;;8.22;55.15
39265;BME280;42646;51.910;7.724;2023-04-20T01:21:15;101384.25;;;8.13;56.12
39265;BME280;42646;51.910;7.724;2023-04-20T01:23:52;101376.19;;;8.15;56.21
39265;BME280;42646;51.910;7.724;2023-04-20T01:26:22;101364.75;;;8.14;56.71
39265;BME280;42646;51.910;7.724;2023-04-20T01:28:50;101369.19;;;8.14;56.78
39265;BME280;42646;51.910;7.724;2023-04-20T01:31:18;101369.72;;;8.19;57.10
39265;BME280;42646;51.910;7.724;2023-04-20T01:34:10;101364.63;;;8.16;57.29
39265;BME280;42646;51.910;7.724;2023-04-20T01:36:39;101351.50;;;8.14;58.08
39265;BME280;42646;51.910;7.724;2023-04-20T01:39:09;101348.84;;;8.14;58.27
39265;BME280;42646;51.910;7.724;2023-04-20T01:41:37;101343.66;;;8.13;58.21
39265;BME280;42646;51.910;7.724;2023-04-20T01:44:08;101343.66;;;8.13;58.60
39265;BME280;42646;51.910;7.724;2023-04-20T01:46:38;101346.91;;;8.16;58.84
39265;BME280;42646;51.910;7.724;2023-04-20T01:49:06;101331.13;;;8.15;59.24
39265;BME280;42646;51.910;7.724;2023-04-20T01:51:36;101332.63;;;8.19;59.21
39265;BME280;42646;51.910;7.724;2023-04-20T01:54:04;101334.75;;;8.14;59.75
39265;BME280;42646;51.910;7.724;2023-04-20T01:56:34;101328.69;;;8.12;59.82
39265;BME280;42646;51.910;7.724;2023-04-20T01:59:02;101325.94;;;8.13;60.04
39265;BME280;42646;51.910;7.724;2023-04-20T02:01:29;101330.28;;;8.14;60.00
39265;BME280;42646;51.910;7.724;2023-04-20T02:03:59;101334.31;;;8.07;60.27
39265;BME280;42646;51.910;7.724;2023-04-20T02:06:27;101327.09;;;8.09;60.50
39265;BME280;42646;51.910;7.724;2023-04-20T02:08:56;101322.88;;;8.07;60.40
39265;BME280;42646;51.910;7.724;2023-04-20T02:11:24;101332.50;;;8.08;60.84
39265;BME280;42646;51.910;7.724;2023-04-20T02:13:53;101328.25;;;8.05;60.79
39265;BME280;42646;51.910;7.724;2023-04-20T02:16:22;101318.63;;;8.04;60.96
39265;BME280;42646;51.910;7.724;2023-04-20T02:18:50;101321.38;;;8.02;60.90
39265;BME280;42646;51.910;7.724;2023-04-20T02:21:18;101320.41;;;8.03;61.17
39265;BME280;42646;51.910;7.724;2023-04-20T02:23:45;101310.78;;;8.02;60.99
39265;BME280;42646;51.910;7.724;2023-04-20T02:26:13;101315.44;;;7.99;61.41
39265;BME280;42646;51.910;7.724;2023-04-20T02:29:08;101319.78;;;8.00;61.61
39265;BME280;42646;51.910;7.724;2023-04-20T02:31:36;101324.16;;;8.01;61.33
39265;BME280;42646;51.910;7.724;2023-04-20T02:34:04;101315.53;;;7.97;61.49
39265;BME280;42646;51.910;7.724;2023-04-20T02:36:38;101313.84;;;7.96;61.88
39265;BME280;42646;51.910;7.724;2023-04-20T02:39:06;101308.66;;;7.95;61.99
39265;BME280;42646;51.910;7.724;2023-04-20T02:41:35;101312.16;;;7.95;62.14
39265;BME280;42646;51.910;7.724;2023-04-20T02:44:03;101315.66;;;7.96;63.13
39265;BME280;42646;51.910;7.724;2023-04-20T02:46:36;101310.44;;;7.94;63.21
39265;BME280;42646;51.910;7.724;2023-04-20T02:49:04;101309.09;;;7.89;63.78
39265;BME280;42646;51.910;7.724;2023-04-20T02:51:38;101321.88;;;7.82;64.32
39265;BME280;42646;51.910;7.724;2023-04-20T02:54:06;101316.59;;;7.82;64.41
39265;BME280;42646;51.910;7.724;2023-04-20T02:56:34;101311.63;;;7.78;64.79
39265;BME280;42646;51.910;7.724;2023-04-20T02:59:06;101306.50;;;7.74;64.85
39265;BME280;42646;51.910;7.724;2023-04-20T03:01:40;101308.53;;;7.71;65.55
39265;BME280;42646;51.910;7.724;2023-04-20T03:04:13;101306.75;;;7.71;65.28
39265;BME280;42646;51.910;7.724;2023-04-20T03:06:49;101307.78;;;7.69;65.96
39265;BME280;42646;51.910;7.724;2023-04-20T03:09:22;101310.72;;;7.64;66.39
39265;BME280;42646;51.910;7.724;2023-04-20T03:12:24;101304.59;;;7.64;66.39
39265;BME280;42646;51.910;7.724;2023-04-20T03:15:11;101305.66;;;7.61;66.73
39265;BME280;42646;51.910;7.724;2023-04-20T03:17:50;101303.00;;;7.61;66.85
39265;BME280;42646;51.910;7.724;2023-04-20T03:20:18;101300.34;;;7.61;67.27
39265;BME280;42646;51.910;7.724;2023-04-20T03:22:48;101295.19;;;7.60;67.49
39265;BME280;42646;51.910;7.724;2023-04-20T03:25:18;101285.63;;;7.57;67.92
39265;BME280;42646;51.910;7.724;2023-04-20T03:28:13;101282.97;;;7.57;67.98
39265;BME280;42646;51.910;7.724;2023-04-20T03:30:42;101282.34;;;7.54;68.66
39265;BME280;42646;51.910;7.724;2023-04-20T03:33:15;101289.34;;;7.55;69.22
39265;BME280;42646;51.910;7.724;2023-04-20T03:35:43;101278.09;;;7.51;69.66
39265;BME280;42646;51.910;7.724;2023-04-20T03:38:12;101279.25;;;7.47;70.20
39265;BME280;42646;51.910;7.724;2023-04-20T03:40:41;101287.41;;;7.44;70.53
39265;BME280;42646;51.910;7.724;2023-04-20T03:43:10;101292.88;;;7.41;71.16
39265;BME280;42646;51.910;7.724;2023-04-20T03:45:38;101285.16;;;7.38;71.45
39265;BME280;42646;51.910;7.724;2023-04-20T03:48:06;101275.31;;;7.40;71.59
39265;BME280;42646;51.910;7.724;2023-04-20T03:50:35;101279.03;;;7.37;72.00
39265;BME280;42646;51.910;7.724;2023-04-20T03:53:04;101275.00;;;7.32;72.58
39265;BME280;42646;51.910;7.724;2023-04-20T03:55:32;101279.53;;;7.30;72.63
39265;BME280;42646;51.910;7.724;2023-04-20T03:58:04;101257.41;;;7.31;72.85
39265;BME280;42646;51.910;7.724;2023-04-20T04:00:43;101258.44;;;7.28;73.13
39265;BME280;42646;51.910;7.724;2023-04-20T04:03:13;101264.69;;;7.27;73.22
39265;BME280;42646;51.910;7.724;2023-04-20T04:05:42;101271.91;;;7.25;73.63
39265;BME280;42646;51.910;7.724;2023-04-20T04:08:12;101270.94;;;7.26;73.53
39265;BME280;42646;51.910;7.724;2023-04-20T04:10:42;101267.56;;;7.24;73.80
39265;BME280;42646;51.910;7.724;2023-04-20T04:13:10;101259.94;;;7.19;74.32
39265;BME280;42646;51.910;7.724;2023-04-20T04:15:38;101267.88;;;7.19;74.12
39265;BME280;42646;51.910;7.724;2023-04-20T04:18:10;101277.50;;;7.20;74.53
39265;BME280;42646;51.910;7.724;2023-04-20T04:20:39;101264.56;;;7.16;74.86
39265;BME280;42646;51.910;7.724;2023-04-20T04:23:11;101269.84;;;7.16;74.86
39265;BME280;42646;51.910;7.724;2023-04-20T04:25:44;101273.47;;;7.15;75.00
39265;BME280;42646;51.910;7.724;2023-04-20T04:28:12;101272.59;;;7.14;75.36
39265;BME280;42646;51.910;7.724;2023-04-20T04:30:53;101262.97;;;7.13;75.46
39265;BME280;42646;51.910;7.724;2023-04-20T04:33:21;101265.72;;;7.12;75.56
39265;BME280;42646;51.910;7.724;2023-04-20T04:35:51;101266.78;;;7.09;75.86
39265;BME280;42646;51.910;7.724;2023-04-20T04:38:22;101277.56;;;7.06;76.24
39265;BME280;42646;51.910;7.724;2023-04-20T04:40:50;101276.91;;;7.03;76.56
39265;BME280;42646;51.910;7.724;2023-04-20T04:43:19;101279.84;;;6.98;76.82
39265;BME280;42646;51.910;7.724;2023-04-20T04:45:57;101278.25;;;6.95;77.11
39265;BME280;42646;51.910;7.724;2023-04-20T04:48:26;101272.97;;;6.95;77.54
39265;BME280;42646;51.910;7.724;2023-04-20T04:50:54;101277.41;;;6.95;77.65
39265;BME280;42646;51.910;7.724;2023-04-20T04:53:23;101285.75;;;6.89;77.90
39265;BME280;42646;51.910;7.724;2023-04-20T04:55:51;101283.19;;;6.87;78.08
39265;BME280;42646;51.910;7.724;2023-04-20T04:58:20;101276.97;;;6.88;78.16
39265;BME280;42646;51.910;7.724;2023-04-20T05:00:48;101273.16;;;6.92;78.24
39265;BME280;42646;51.910;7.724;2023-04-20T05:03:16;101269.66;;;6.92;78.23
39265;BME280;42646;51.910;7.724;2023-04-20T05:05:44;101261.63;;;6.93;78.21
39265;BME280;42646;51.910;7.724;2023-04-20T05:08:13;101264.59;;;6.89;78.69
39265;BME280;42646;51.910;7.724;2023-04-20T05:10:42;101257.78;;;6.85;79.07
39265;BME280;42646;51.910;7.724;2023-04-20T05:13:10;101263.09;;;6.85;79.02
39265;BME280;42646;51.910;7.724;2023-04-20T05:15:37;101264.66;;;6.87;79.04
39265;BME280;42646;51.910;7.724;2023-04-20T05:18:08;101262.13;;;6.86;79.16
39265;BME280;42646;51.910;7.724;2023-04-20T05:20:36;101266.47;;;6.87;79.33
39265;BME280;42646;51.910;7.724;2023-04-20T05:23:04;101264.59;;;6.89;79.53
39265;BME280;42646;51.910;7.724;2023-04-20T05:25:32;101273.09;;;6.94;79.52
39265;BME280;42646;51.910;7.724;2023-04-20T05:28:01;101275.56;;;6.83;80.12
39265;BME280;42646;51.910;7.724;2023-04-20T05:30:33;101278.22;;;6.83;80.30
39265;BME280;42646;51.910;7.724;2023-04-20T05:33:01;101285.47;;;6.79;80.81
39265;BME280;42646;51.910;7.724;2023-04-20T05:35:29;101283.50;;;6.83;80.56
39265;BME280;42646;51.910;7.724;2023-04-20T05:37:57;101287.06;;;6.82;80.81
39265;BME280;42646;51.910;7.724;2023-04-20T05:40:27;101288.88;;;6.81;80.52
39265;BME280;42646;51.910;7.724;2023-04-20T05:42:55;101291.22;;;6.86;80.57
39265;BME280;42646;51.910;7.724;2023-04-20T05:45:25;101290.25;;;6.87;80.84
39265;BME280;42646;51.910;7.724;2023-04-20T05:47:54;101282.16;;;6.90;80.71
39265;BME280;42646;51.910;7.724;2023-04-20T05:50:22;101291.66;;;6.92;80.83
39265;BME280;42646;51.910;7.724;2023-04-20T05:52:50;101291.22;;;6.86;80.87
39265;BME280;42646;51.910;7.724;2023-04-20T05:55:19;101289.63;;;6.83;81.18
39265;BME280;42646;51.910;7.724;2023-04-20T05:57:50;101287.84;;;6.84;81.34
39265;BME280;42646;51.910;7.724;2023-04-20T06:00:19;101282.34;;;6.87;81.52
39265;BME280;42646;51.910;7.724;2023-04-20T06:02:52;101286.78;;;6.86;81.94
39265;BME280;42646;51.910;7.724;2023-04-20T06:05:21;101291.13;;;6.87;81.91
39265;BME280;42646;51.910;7.724;2023-04-20T06:07:49;101299.81;;;6.89;81.70
39265;BME280;42646;51.910;7.724;2023-04-20T06:10:17;101299.25;;;6.84;82.23
39265;BME280;42646;51.910;7.724;2023-04-20T06:12:45;101297.34;;;6.86;82.09
39265;BME280;42646;51.910;7.724;2023-04-20T06:15:14;101302.66;;;6.86;82.56
39265;BME280;42646;51.910;7.724;2023-04-20T06:17:43;101299.94;;;6.88;82.64
39265;BME280;42646;51.910;7.724;2023-04-20T06:20:14;101302.75;;;6.85;82.79
39265;BME280;42646;51.910;7.724;2023-04-20T06:22:43;101300.84;;;6.87;82.82
39265;BME280;42646;51.910;7.724;2023-04-20T06:25:12;101302.66;;;6.86;82.93
39265;BME280;42646;51.910;7.724;2023-04-20T06:27:41;101295.66;;;6.85;83.29
39265;BME280;42646;51.910;7.724;2023-04-20T06:30:09;101290.94;;;6.90;83.03
39265;BME280;42646;51.910;7.724;2023-04-20T06:32:37;101298.97;;;6.89;83.39
39265;BME280;42646;51.910;7.724;2023-04-20T06:35:07;101293.69;;;6.89;83.67
39265;BME280;42646;51.910;7.724;2023-04-20T06:37:38;101295.38;;;6.90;83.56
39265;BME280;42646;51.910;7.724;2023-04-20T06:40:07;101290.81;;;6.92;83.45
39265;BME280;42646;51.910;7.724;2023-04-20T06:42:41;101290.81;;;6.92;83.61
39265;BME280;42646;51.910;7.724;2023-04-20T06:45:10;101295.09;;;6.94;83.87
39265;BME280;42646;51.910;7.724;2023-04-20T06:47:38;101297.06;;;6.91;84.36
39265;BME280;42646;51.910;7.724;2023-04-20T06:50:06;101295.47;;;6.88;84.70
39265;BME280;42646;51.910;7.724;2023-04-20T06:52:35;101288.19;;;6.92;84.61
39265;BME280;42646;51.910;7.724;2023-04-20T06:55:05;101295.09;;;6.94;84.59
39265;BME280;42646;51.910;7.724;2023-04-20T06:57:35;101296.97;;;6.92;84.48
39265;BME280;42646;51.910;7.724;2023-04-20T07:00:05;101300.44;;;6.93;84.60
39265;BME280;42646;51.910;7.724;2023-04-20T07:02:42;101297.91;;;6.91;84.86
39265;BME280;42646;51.910;7.724;2023-04-20T07:05:11;101290.25;;;7.01;84.69
39265;BME280;42646;51.910;7.724;2023-04-20T07:07:40;101285.91;;;7.00;84.51
39265;BME280;42646;51.910;7.724;2023-04-20T07:10:10;101293.72;;;7.02;84.79
39265;BME280;42646;51.910;7.724;2023-04-20T07:12:39;101290.88;;;7.05;84.74
39265;BME280;42646;51.910;7.724;2023-04-20T07:15:10;101284.44;;;7.09;84.69
39265;BME280;42646;51.910;7.724;2023-04-20T07:17:38;101283.38;;;7.11;84.70
39265;BME280;42646;51.910;7.724;2023-04-20T07:20:07;101284.34;;;7.10;84.90
39265;BME280;42646;51.910;7.724;2023-04-20T07:22:37;101286.13;;;7.10;85.00
39265;BME280;42646;51.910;7.724;2023-04-20T07:25:09;101278.84;;;7.13;84.65
39265;BME280;42646;51.910;7.724;2023-04-20T07:27:41;101287.53;;;7.15;85.20
39265;BME280;42646;51.910;7.724;2023-04-20T07:30:09;101274.31;;;7.15;86.02
39265;BME280;42646;51.910;7.724;2023-04-20T07:32:42;101275.91;;;7.18;86.92
39265;BME280;42646;51.910;7.724;2023-04-20T07:35:10;101272.19;;;7.20;87.82
39265;BME280;42646;51.910;7.724;2023-04-20T07:37:38;101282.06;;;7.18;88.00
39265;BME280;42646;51.910;7.724;2023-04-20T07:40:09;101281.09;;;7.19;88.04
39265;BME280;42646;51.910;7.724;2023-04-20T07:42:38;101274.13;;;7.18;88.19
39265;BME280;42646;51.910;7.724;2023-04-20T07:45:09;101283.09;;;7.16;88.37
39265;BME280;42646;51.910;7.724;2023-04-20T07:47:37;101286.50;;;7.18;87.86
39265;BME280;42646;51.910;7.724;2023-04-20T07:50:06;101283.53;;;7.22;87.44
39265;BME280;42646;51.910;7.724;2023-04-20T07:52:34;101288.47;;;7.14;88.10
39265;BME280;42646;51.910;7.724;2023-04-20T07:55:04;101286.28;;;7.21;87.12
39265;BME280;42646;51.910;7.724;2023-04-20T07:57:35;101282.25;;;7.15;87.28
39265;BME280;42646;51.910;7.724;2023-04-20T08:00:04;101289.16;;;7.18;86.91
39265;BME280;42646;51.910;7.724;2023-04-20T08:02:38;101278.63;;;7.16;87.00
39265;BME280;42646;51.910;7.724;2023-04-20T08:05:06;101278.00;;;7.13;87.38
39265;BME280;42646;51.910;7.724;2023-04-20T08:07:35;101281.28;;;7.16;87.70
39265;BME280;42646;51.910;7.724;2023-04-20T08:10:05;101279.47;;;7.17;87.75
39265;BME280;42646;51.910;7.724;2023-04-20T08:12:36;101274.84;;;7.20;87.89
39265;BME280;42646;51.910;7.724;2023-04-20T08:15:04;101273.38;;;7.29;87.38
39265;BME280;42646;51.910;7.724;2023-04-20T08:17:32;101284.91;;;7.28;87.37
39265;BME280;42646;51.910;7.724;2023-04-20T08:20:00;101270.72;;;7.29;87.41
39265;BME280;42646;51.910;7.724;2023-04-20T08:22:30;101272.66;;;7.40;87.27
39265;BME280;42646;51.910;7.724;2023-04-20T08:24:58;101272.78;;;7.38;87.12
39265;BME280;42646;51.910;7.724;2023-04-20T08:27:27;101271.72;;;7.41;87.33
39265;BME280;42646;51.910;7.724;2023-04-20T08:29:57;101262.31;;;7.49;86.70
39265;BME280;42646;51.910;7.724;2023-04-20T08:32:25;101264.75;;;7.53;86.69
39265;BME280;42646;51.910;7.724;2023-04-20T08:34:53;101258.41;;;7.55;86.58
39265;BME280;42646;51.910;7.724;2023-04-20T08:37:21;101261.59;;;7.73;85.29
39265;BME280;42646;51.910;7.724;2023-04-20T08:39:50;101255.34;;;7.74;85.16
39265;BME280;42646;51.910;7.724;2023-04-20T08:42:18;101250.59;;;7.79;85.02
39265;BME280;42646;51.910;7.724;2023-04-20T08:44:46;101246.13;;;7.92;84.52
39265;BME280;42646;51.910;7.724;2023-04-20T08:47:15;101254.28;;;8.02;84.01
39265;BME280;42646;51.910;7.724;2023-04-20T08:49:43;101250.03;;;8.12;83.06
39265;BME280;42646;51.910;7.724;2023-04-20T08:52:13;101254.38;;;8.26;82.18
39265;BME280;42646;51.910;7.724;2023-04-20T08:54:42;101261.25;;;8.41;80.34
39265;BME280;42646;51.910;7.724;2023-04-20T08:57:22;101243.31;;;8.45;80.09
39265;BME280;42646;51.910;7.724;2023-04-20T08:59:50;101250.63;;;8.54;79.45
39265;BME280;42646;51.910;7.724;2023-04-20T09:02:21;101243.16;;;8.59;78.87
39265;BME280;42646;51.910;7.724;2023-04-20T09:04:59;101251.75;;;8.63;78.38
39265;BME280;42646;51.910;7.724;2023-04-20T09:07:27;101250.34;;;8.70;78.13
39265;BME280;42646;51.910;7.724;2023-04-20T09:10:23;101262.19;;;8.77;77.37
39265;BME280;42646;51.910;7.724;2023-04-20T09:12:53;101255.50;;;8.84;75.63
39265;BME280;42646;51.910;7.724;2023-04-20T09:15:25;101251.03;;;8.61;76.77
39265;BME280;42646;51.910;7.724;2023-04-20T09:17:55;101253.06;;;8.57;77.09
39265;BME280;42646;51.910;7.724;2023-04-20T09:20:32;101252.41;;;8.66;77.21
39265;BME280;42646;51.910;7.724;2023-04-20T09:23:11;101261.84;;;8.57;76.83
39265;BME280;42646;51.910;7.724;2023-04-20T09:25:41;101257.63;;;8.55;77.23
39265;BME280;42646;51.910;7.724;2023-04-20T09:28:11;101265.06;;;8.50;77.19
39265;BME280;42646;51.910;7.724;2023-04-20T09:30:41;101255.19;;;8.52;77.17
39265;BME280;42646;51.910;7.724;2023-04-20T09:33:13;101266.09;;;8.47;76.74
39265;BME280;42646;51.910;7.724;2023-04-20T09:35:43;101266.09;;;8.47;76.52
39265;BME280;42646;51.910;7.724;2023-04-20T09:38:14;101268.03;;;8.45;76.86
39265;BME280;42646;51.910;7.724;2023-04-20T09:40:42;101262.53;;;8.48;77.04
39265;BME280;42646;51.910;7.724;2023-04-20T09:43:35;101257.63;;;8.55;77.05
39265;BME280;42646;51.910;7.724;2023-04-20T09:46:04;101258.16;;;8.60;76.67
39265;BME280;42646;51.910;7.724;2023-04-20T09:48:34;101253.75;;;8.72;76.39
39265;BME280;42646;51.910;7.724;2023-04-20T09:51:03;101253.47;;;8.88;76.37
39265;BME280;42646;51.910;7.724;2023-04-20T09:53:33;101245.50;;;9.12;74.98
39265;BME280;42646;51.910;7.724;2023-04-20T09:56:02;101243.34;;;9.17;74.56
39265;BME280;42646;51.910;7.724;2023-04-20T09:58:33;101240.03;;;9.26;74.30
39265;BME280;42646;51.910;7.724;2023-04-20T10:01:01;101242.75;;;9.24;73.52
39265;BME280;42646;51.910;7.724;2023-04-20T10:03:29;101251.22;;;9.29;73.38
39265;BME280;42646;51.910;7.724;2023-04-20T10:05:59;101246.16;;;9.26;73.22
39265;BME280;42646;51.910;7.724;2023-04-20T10:08:27;101256.53;;;9.29;73.06
39265;BME280;42646;51.910;7.724;2023-04-20T10:11:07;101256.44;;;9.31;72.30
39265;BME280;42646;51.910;7.724;2023-04-20T10:13:36;101247.34;;;9.22;72.84
39265;BME280;42646;51.910;7.724;2023-04-20T10:16:16;101250.72;;;9.24;73.03
39265;BME280;42646;51.910;7.724;2023-04-20T10:18:55;101251.13;;;9.31;72.79
39265;BME280;42646;51.910;7.724;2023-04-20T10:21:24;101251.28;;;9.41;72.62
39265;BME280;42646;51.910;7.724;2023-04-20T10:23:53;101259.25;;;9.41;73.22
39265;BME280;42646;51.910;7.724;2023-04-20T10:26:21;101247.19;;;9.48;72.31
39265;BME280;42646;51.910;7.724;2023-04-20T10:28:49;101257.59;;;9.51;72.76
39265;BME280;42646;51.910;7.724;2023-04-20T10:31:18;101260.63;;;9.57;72.33
39265;BME280;42646;51.910;7.724;2023-04-20T10:33:49;101245.56;;;9.69;70.55
39265;BME280;42646;51.910;7.724;2023-04-20T10:36:29;101248.22;;;9.80;69.76
39265;BME280;42646;51.910;7.724;2023-04-20T10:38:57;101242.78;;;9.82;69.57
39265;BME280;42646;51.910;7.724;2023-04-20T10:41:28;101232.53;;;9.88;69.48
39265;BME280;42646;51.910;7.724;2023-04-20T10:44:05;101236.38;;;9.96;69.37
39265;BME280;42646;51.910;7.724;2023-04-20T10:46:33;101239.06;;;10.18;68.81
39265;BME280;42646;51.910;7.724;2023-04-20T10:49:01;101240.06;;;10.28;67.61
39265;BME280;42646;51.910;7.724;2023-04-20T10:51:30;101238.25;;;10.29;67.20
39265;BME280;42646;51.910;7.724;2023-04-20T10:53:59;101249.84;;;10.28;67.50
39265;BME280;42646;51.910;7.724;2023-04-20T10:56:35;101239.94;;;10.30;67.34
39265;BME280;42646;51.910;7.724;2023-04-20T10:59:06;101239.94;;;10.30;67.36
39265;BME280;42646;51.910;7.724;2023-04-20T11:01:37;101241.75;;;10.40;66.50
39265;BME280;42646;51.910;7.724;2023-04-20T11:04:05;101230.59;;;10.47;65.69
39265;BME280;42646;51.910;7.724;2023-04-20T11:06:34;101226.84;;;10.49;66.66
39265;BME280;42646;51.910;7.724;2023-04-20T11:09:03;101226.47;;;10.54;67.52
39265;BME280;42646;51.910;7.724;2023-04-20T11:11:31;101225.81;;;10.73;65.96
39265;BME280;42646;51.910;7.724;2023-04-20T11:14:07;101221.47;;;10.72;65.38
39265;BME280;42646;51.910;7.724;2023-04-20T11:16:37;101220.59;;;10.82;65.12
39265;BME280;42646;51.910;7.724;2023-04-20T11:19:22;101215.09;;;10.95;66.07
39265;BME280;42646;51.910;7.724;2023-04-20T11:21:53;101210.00;;;11.03;64.64
39265;BME280;42646;51.910;7.724;2023-04-20T11:24:22;101211.41;;;11.07;66.10
39265;BME280;42646;51.910;7.724;2023-04-20T11:26:52;101211.97;;;11.22;66.55
39265;BME280;42646;51.910;7.724;2023-04-20T11:29:27;101209.69;;;11.38;62.03
39265;BME280;42646;51.910;7.724;2023-04-20T11:31:56;101212.09;;;11.41;61.63
39265;BME280;42646;51.910;7.724;2023-04-20T11:34:25;101206.19;;;11.38;61.37
39265;BME280;42646;51.910;7.724;2023-04-20T11:36:54;101212.81;;;11.43;61.44
39265;BME280;42646;51.910;7.724;2023-04-20T11:39:23;101214.75;;;11.41;60.96
39265;BME280;42646;51.910;7.724;2023-04-20T11:41:51;101208.72;;;11.39;60.44
39265;BME280;42646;51.910;7.724;2023-04-20T11:44:19;101206.59;;;11.33;60.89
39265;BME280;42646;51.910;7.724;2023-04-20T11:46:47;101209.97;;;11.35;61.00
39265;BME280;42646;51.910;7.724;2023-04-20T11:49:16;101206.59;;;11.33;61.38
39265;BME280;42646;51.910;7.724;2023-04-20T11:51:45;101215.88;;;11.39;60.84
39265;BME280;42646;51.910;7.724;2023-04-20T11:54:14;101202.94;;;11.34;60.95
39265;BME280;42646;51.910;7.724;2023-04-20T11:56:44;101199.31;;;11.35;62.15
39265;BME280;42646;51.910;7.724;2023-04-20T11:59:12;101208.16;;;11.57;61.35
39265;BME280;42646;51.910;7.724;2023-04-20T12:01:42;101194.72;;;11.68;61.91
39265;BME280;42646;51.910;7.724;2023-04-20T12:04:10;101198.91;;;11.82;60.78
39265;BME280;42646;51.910;7.724;2023-04-20T12:06:38;101200.50;;;11.94;60.95
39265;BME280;42646;51.910;7.724;2023-04-20T12:09:06;101196.47;;;11.99;60.63
39265;BME280;42646;51.910;7.724;2023-04-20T12:11:36;101202.50;;;12.01;59.54
39265;BME280;42646;51.910;7.724;2023-04-20T12:14:03;101206.81;;;11.93;59.04
39265;BME280;42646;51.910;7.724;2023-04-20T12:16:31;101202.16;;;11.64;59.56
39265;BME280;42646;51.910;7.724;2023-04-20T12:18:59;101206.56;;;11.54;59.18
39265;BME280;42646;51.910;7.724;2023-04-20T12:21:27;101206.13;;;11.49;60.39
39265;BME280;42646;51.910;7.724;2023-04-20T12:23:54;101201.91;;;11.46;60.65
39265;BME280;42646;51.910;7.724;2023-04-20T12:26:24;101206.59;;;11.33;60.51
39265;BME280;42646;51.910;7.724;2023-04-20T12:29:05;101202.09;;;11.34;61.17
39265;BME280;42646;51.910;7.724;2023-04-20T12:31:33;101196.25;;;11.40;61.59
39265;BME280;42646;51.910;7.724;2023-04-20T12:34:02;101199.75;;;11.40;61.74
39265;BME280;42646;51.910;7.724;2023-04-20T12:36:30;101193.44;;;11.41;60.97
39265;BME280;42646;51.910;7.724;2023-04-20T12:39:03;101196.81;;;11.43;60.86
39265;BME280;42646;51.910;7.724;2023-04-20T12:41:32;101186.06;;;11.45;61.21
39265;BME280;42646;51.910;7.724;2023-04-20T12:44:02;101199.94;;;11.48;59.94
39265;BME280;42646;51.910;7.724;2023-04-20T12:46:34;101198.84;;;11.51;60.11
39265;BME280;42646;51.910;7.724;2023-04-20T12:49:02;101191.41;;;11.55;59.33
39265;BME280;42646;51.910;7.724;2023-04-20T12:51:32;101188.38;;;11.59;57.27
39265;BME280;42646;51.910;7.724;2023-04-20T12:54:00;101190.91;;;11.61;57.49
39265;BME280;42646;51.910;7.724;2023-04-20T12:56:28;101178.88;;;11.66;55.45
39265;BME280;42646;51.910;7.724;2023-04-20T12:58:56;101175.41;;;11.45;56.90
39265;BME280;42646;51.910;7.724;2023-04-20T13:01:24;101185.53;;;11.51;57.75
39265;BME280;42646;51.910;7.724;2023-04-20T13:03:54;101181.03;;;11.52;57.96
39265;BME280;42646;51.910;7.724;2023-04-20T13:06:22;101174.91;;;11.61;57.89
39265;BME280;42646;51.910;7.724;2023-04-20T13:08:49;101178.78;;;11.77;57.77
39265;BME280;42646;51.910;7.724;2023-04-20T13:11:17;101174.09;;;11.91;56.98
39265;BME280;42646;51.910;7.724;2023-04-20T13:13:45;101169.50;;;11.93;56.66